createdAt,value
2018-10-03T00:02:04.097Z,15.90
2018-10-03T00:04:31.052Z,20.60
2018-10-03T00:06:58.109Z,13.63
2018-10-03T00:09:25.062Z,22.97
2018-10-03T00:11:52.044Z,13.43
2018-10-03T00:14:19.251Z,12.07
2018-10-03T00:16:46.158Z,17.97
2018-10-03T00:19:13.118Z,16.63
2018-10-03T00:21:40.034Z,18.07
2018-10-03T00:24:06.982Z,20.13
2018-10-03T00:26:33.906Z,17.30
2018-10-03T00:29:00.868Z,22.63
2018-10-03T00:31:27.797Z,16.23
2018-10-03T00:33:54.761Z,15.97
2018-10-03T00:36:21.697Z,15.60
2018-10-03T00:38:48.607Z,18.27
2018-10-03T00:41:15.546Z,14.90
2018-10-03T00:43:42.581Z,20.07
2018-10-03T00:46:10.267Z,20.63
2018-10-03T00:48:37.865Z,19.57
2018-10-03T00:51:04.821Z,14.73
2018-10-03T00:53:32.387Z,17.73
2018-10-03T00:55:59.546Z,15.73
2018-10-03T00:58:26.479Z,18.37
2018-10-03T01:00:53.462Z,18.20
2018-10-03T01:03:20.949Z,13.27
2018-10-03T01:05:47.932Z,14.10
2018-10-03T01:08:14.841Z,19.33
2018-10-03T01:10:41.840Z,17.63
2018-10-03T01:13:08.774Z,15.60
2018-10-03T01:15:35.716Z,12.97
2018-10-03T01:18:02.838Z,13.83
2018-10-03T01:20:29.771Z,15.63
2018-10-03T01:22:56.744Z,13.37
2018-10-03T01:25:23.791Z,17.23
2018-10-03T01:27:50.735Z,14.03
2018-10-03T01:30:17.670Z,11.67
2018-10-03T01:32:44.615Z,16.57
2018-10-03T01:35:11.533Z,16.17
2018-10-03T01:37:38.502Z,15.80
2018-10-03T01:40:05.444Z,15.40
2018-10-03T01:42:32.375Z,20.13
2018-10-03T01:44:59.399Z,14.60
2018-10-03T01:47:26.358Z,14.43
2018-10-03T01:49:53.269Z,14.20
2018-10-03T01:52:20.196Z,12.10
2018-10-03T01:54:47.139Z,15.13
2018-10-03T01:57:14.149Z,18.20
2018-10-03T01:59:41.077Z,17.27
2018-10-03T02:02:08.016Z,16.30
2018-10-03T02:04:34.959Z,16.90
2018-10-03T02:07:01.864Z,15.00
2018-10-03T02:09:28.776Z,18.60
2018-10-03T02:11:55.738Z,17.47
2018-10-03T02:14:22.663Z,10.47
2018-10-03T02:16:49.611Z,16.00
2018-10-03T02:19:16.515Z,10.53
2018-10-03T02:21:43.447Z,14.30
2018-10-03T02:24:10.371Z,18.13
2018-10-03T02:26:37.369Z,11.27
2018-10-03T02:29:05.328Z,19.73
2018-10-03T02:31:32.712Z,16.83
2018-10-03T02:33:59.714Z,11.10
2018-10-03T02:36:26.626Z,15.33
2018-10-03T02:38:53.919Z,18.23
2018-10-03T02:41:21.176Z,13.23
2018-10-03T02:43:48.133Z,20.00
2018-10-03T02:46:15.050Z,13.03
2018-10-03T02:48:41.955Z,16.80
2018-10-03T02:51:08.892Z,12.10
2018-10-03T02:53:35.842Z,15.87
2018-10-03T02:56:02.798Z,17.33
2018-10-03T02:58:29.936Z,20.30
2018-10-03T03:00:56.973Z,15.97
2018-10-03T03:03:23.946Z,16.93
2018-10-03T03:05:51.546Z,14.13
2018-10-03T03:08:18.431Z,16.17
2018-10-03T03:10:45.410Z,13.40
2018-10-03T03:13:12.370Z,11.80
2018-10-03T03:15:39.363Z,14.03
2018-10-03T03:18:06.341Z,19.13
2018-10-03T03:20:33.264Z,14.50
2018-10-03T03:23:00.262Z,15.63
2018-10-03T03:25:27.230Z,15.50
2018-10-03T03:27:54.172Z,13.13
2018-10-03T03:30:21.150Z,13.10
2018-10-03T03:32:48.085Z,14.03
2018-10-03T03:35:15.043Z,19.17
2018-10-03T03:37:42.017Z,13.93
2018-10-03T03:40:08.919Z,14.73
2018-10-03T03:42:35.885Z,12.43
2018-10-03T03:45:02.824Z,18.50
2018-10-03T03:47:29.752Z,14.10
2018-10-03T03:49:56.697Z,14.23
2018-10-03T03:52:23.664Z,10.87
2018-10-03T03:54:50.695Z,16.07
2018-10-03T03:57:17.606Z,9.53
2018-10-03T03:59:44.577Z,16.73
2018-10-03T04:02:11.511Z,13.80
2018-10-03T04:04:39.471Z,17.53
2018-10-03T04:07:06.381Z,18.80
2018-10-03T04:09:33.606Z,12.30
2018-10-03T04:12:00.575Z,13.17
2018-10-03T04:14:27.475Z,20.40
2018-10-03T04:16:54.490Z,11.23
2018-10-03T04:19:21.811Z,11.20
2018-10-03T04:21:48.907Z,17.57
2018-10-03T04:24:16.115Z,16.60
2018-10-03T04:26:43.164Z,12.43
2018-10-03T04:29:10.207Z,14.90
2018-10-03T04:31:37.253Z,19.57
2018-10-03T04:34:04.676Z,14.70
2018-10-03T04:36:32.706Z,21.40
2018-10-03T04:39:00.632Z,15.20
2018-10-03T04:41:27.580Z,18.23
2018-10-03T04:43:54.601Z,17.20
2018-10-03T04:46:21.682Z,13.53
2018-10-03T04:48:48.652Z,15.50
2018-10-03T04:51:15.838Z,13.90
2018-10-03T04:53:42.741Z,17.17
2018-10-03T04:56:09.638Z,16.43
2018-10-03T04:58:37.007Z,18.60
2018-10-03T05:01:03.919Z,16.00
2018-10-03T05:03:30.841Z,16.27
2018-10-03T05:05:57.767Z,11.17
2018-10-03T05:08:24.707Z,10.40
2018-10-03T05:10:51.641Z,10.97
2018-10-03T05:13:18.624Z,11.53
2018-10-03T05:15:45.539Z,15.20
2018-10-03T05:18:12.488Z,12.33
2018-10-03T05:20:39.450Z,15.97
2018-10-03T05:23:06.410Z,14.13
2018-10-03T05:25:34.116Z,17.27
2018-10-03T05:28:01.181Z,15.33
2018-10-03T05:30:29.351Z,15.00
2018-10-03T05:32:56.313Z,19.23
2018-10-03T05:35:23.233Z,21.57
2018-10-03T05:37:50.169Z,21.13
2018-10-03T05:40:17.108Z,17.87
2018-10-03T05:42:44.025Z,18.47
2018-10-03T05:45:10.985Z,12.10
2018-10-03T05:47:38.651Z,14.13
2018-10-03T05:50:05.601Z,11.80
2018-10-03T05:52:33.619Z,13.30
2018-10-03T05:55:00.517Z,12.70
2018-10-03T05:57:27.438Z,15.47
2018-10-03T05:59:54.444Z,20.17
2018-10-03T06:02:21.369Z,18.97
2018-10-03T06:04:48.316Z,20.10
2018-10-03T06:07:15.280Z,20.23
2018-10-03T06:09:42.264Z,18.00
2018-10-03T06:12:10.266Z,13.13
2018-10-03T06:14:37.274Z,15.60
2018-10-03T06:17:04.256Z,11.97
2018-10-03T06:19:31.216Z,14.47
2018-10-03T06:21:58.426Z,14.53
2018-10-03T06:24:25.443Z,19.27
2018-10-03T06:26:52.499Z,26.33
2018-10-03T06:29:19.721Z,14.07
2018-10-03T06:31:46.724Z,16.07
2018-10-03T06:34:13.677Z,19.13
2018-10-03T06:36:41.598Z,19.10
2018-10-03T06:39:09.535Z,15.67
2018-10-03T06:41:37.405Z,18.00
2018-10-03T06:44:05.152Z,16.83
2018-10-03T06:46:32.181Z,12.63
2018-10-03T06:48:59.383Z,17.97
2018-10-03T06:51:26.435Z,18.23
2018-10-03T06:53:53.437Z,23.47
2018-10-03T06:56:20.463Z,15.67
2018-10-03T06:58:47.457Z,12.40
2018-10-03T07:01:14.411Z,17.47
2018-10-03T07:03:43.019Z,14.97
2018-10-03T07:06:10.014Z,15.00
2018-10-03T07:08:37.023Z,22.73
2018-10-03T07:11:03.964Z,13.37
2018-10-03T07:13:30.944Z,10.90
2018-10-03T07:15:57.920Z,14.40
2018-10-03T07:18:24.925Z,13.83
2018-10-03T07:20:52.536Z,14.70
2018-10-03T07:23:19.780Z,11.87
2018-10-03T07:25:46.764Z,9.90
2018-10-03T07:28:15.876Z,13.60
2018-10-03T07:30:42.821Z,13.63
2018-10-03T07:33:09.833Z,13.43
2018-10-03T07:35:36.793Z,13.03
2018-10-03T07:38:03.785Z,15.43
2018-10-03T07:40:30.769Z,16.27
2018-10-03T07:42:57.738Z,13.97
2018-10-03T07:45:24.713Z,13.83
2018-10-03T07:47:51.681Z,13.37
2018-10-03T07:50:18.667Z,12.13
2018-10-03T07:52:45.643Z,11.60
2018-10-03T07:55:12.599Z,13.97
2018-10-03T07:57:39.503Z,11.93
2018-10-03T08:00:07.268Z,12.33
2018-10-03T08:02:34.322Z,14.17
2018-10-03T08:05:01.342Z,12.83
2018-10-03T08:07:28.268Z,10.67
2018-10-03T08:09:55.303Z,8.47
2018-10-03T08:12:22.278Z,9.63
2018-10-03T08:14:49.245Z,10.20
2018-10-03T08:17:16.293Z,10.07
2018-10-03T08:19:43.195Z,13.47
2018-10-03T08:22:10.146Z,10.57
2018-10-03T08:24:37.276Z,12.43
2018-10-03T08:27:05.662Z,12.33
2018-10-03T08:29:32.701Z,12.37
2018-10-03T08:31:59.776Z,12.10
2018-10-03T08:34:26.978Z,12.17
2018-10-03T08:36:54.316Z,12.50
2018-10-03T08:39:23.805Z,13.77
2018-10-03T08:41:50.918Z,12.43
2018-10-03T08:44:18.192Z,16.70
2018-10-03T08:46:47.844Z,6.97
2018-10-03T08:49:16.213Z,9.53
2018-10-03T08:51:54.825Z,16.27
2018-10-03T08:54:21.836Z,19.57
2018-10-03T08:56:48.838Z,13.63
2018-10-03T08:59:15.927Z,17.93
2018-10-03T09:01:42.980Z,22.83
2018-10-03T09:04:09.961Z,29.90
2018-10-03T09:06:37.059Z,23.47
2018-10-03T09:09:06.549Z,33.70
2018-10-03T09:11:33.548Z,19.93
2018-10-03T09:14:00.485Z,15.70
2018-10-03T09:16:27.563Z,11.50
2018-10-03T09:18:54.585Z,13.00
2018-10-03T09:21:21.593Z,16.10
2018-10-03T09:23:48.615Z,9.30
2018-10-03T09:26:15.575Z,10.43
2018-10-03T09:28:42.581Z,11.77
2018-10-03T09:31:09.559Z,12.97
2018-10-03T09:33:36.529Z,9.13
2018-10-03T09:36:03.550Z,12.73
2018-10-03T09:38:30.448Z,9.07
2018-10-03T09:40:57.405Z,7.97
2018-10-03T09:43:24.374Z,12.30
2018-10-03T09:45:51.302Z,8.93
2018-10-03T09:48:18.218Z,8.47
2018-10-03T09:50:45.113Z,12.60
2018-10-03T09:53:12.031Z,14.23
2018-10-03T09:55:38.970Z,12.93
2018-10-03T09:58:05.958Z,9.87
2018-10-03T10:00:38.727Z,8.00
2018-10-03T10:03:05.608Z,6.80
2018-10-03T10:05:32.517Z,11.90
2018-10-03T10:07:59.454Z,8.93
2018-10-03T10:10:26.344Z,6.73
2018-10-03T10:12:53.255Z,11.50
2018-10-03T10:15:20.173Z,8.90
2018-10-03T10:17:47.106Z,8.57
2018-10-03T10:20:14.091Z,13.07
2018-10-03T10:22:41.013Z,12.23
2018-10-03T10:25:07.931Z,9.50
2018-10-03T10:27:34.863Z,10.03
2018-10-03T10:30:01.832Z,10.07
2018-10-03T10:32:28.849Z,8.73
2018-10-03T10:34:55.678Z,9.83
2018-10-03T10:37:22.599Z,6.43
2018-10-03T10:39:49.590Z,5.97
2018-10-03T10:42:16.526Z,8.57
2018-10-03T10:44:43.452Z,12.03
2018-10-03T10:47:10.361Z,7.50
2018-10-03T10:49:40.786Z,10.87
2018-10-03T10:52:07.700Z,9.70
2018-10-03T10:54:34.608Z,9.83
2018-10-03T10:57:01.543Z,13.50
2018-10-03T10:59:28.427Z,7.80
2018-10-03T11:01:55.445Z,9.03
2018-10-03T11:04:22.419Z,10.60
2018-10-03T11:06:49.477Z,10.60
2018-10-03T11:09:16.489Z,11.60
2018-10-03T11:11:43.461Z,9.30
2018-10-03T11:14:11.044Z,10.70
2018-10-03T11:16:37.960Z,10.20
2018-10-03T11:19:04.992Z,13.63
2018-10-03T11:21:31.968Z,10.23
2018-10-03T11:23:59.256Z,12.53
2018-10-03T11:26:26.060Z,7.47
2018-10-03T11:28:53.068Z,9.47
2018-10-03T11:31:20.104Z,10.47
2018-10-03T11:33:47.090Z,11.90
2018-10-03T11:36:14.072Z,11.10
2018-10-03T11:38:41.044Z,13.40
2018-10-03T11:41:07.962Z,7.80
2018-10-03T11:43:34.975Z,15.13
2018-10-03T11:46:01.984Z,9.00
2018-10-03T11:48:28.997Z,8.00
2018-10-03T11:50:55.965Z,10.00
2018-10-03T11:53:22.922Z,8.63
2018-10-03T11:55:50.071Z,11.20
2018-10-03T11:58:17.009Z,7.37
2018-10-03T12:00:43.992Z,7.23
2018-10-03T12:03:10.963Z,9.13
2018-10-03T12:05:37.979Z,7.20
2018-10-03T12:08:04.923Z,14.10
2018-10-03T12:10:31.839Z,12.70
2018-10-03T12:12:58.887Z,6.93
2018-10-03T12:15:25.876Z,10.53
2018-10-03T12:17:52.857Z,10.80
2018-10-03T12:20:20.524Z,9.87
2018-10-03T12:22:47.520Z,8.60
2018-10-03T12:25:15.584Z,5.50
2018-10-03T12:27:42.880Z,6.77
2018-10-03T12:30:09.912Z,7.30
2018-10-03T12:32:36.860Z,8.93
2018-10-03T12:35:03.824Z,6.10
2018-10-03T12:37:30.792Z,8.07
2018-10-03T12:39:59.052Z,6.30
2018-10-03T12:42:26.033Z,10.73
2018-10-03T12:44:54.068Z,6.77
2018-10-03T12:47:21.118Z,6.00
2018-10-03T12:49:48.145Z,6.47
2018-10-03T12:52:15.134Z,3.63
2018-10-03T12:54:42.122Z,10.33
2018-10-03T12:57:09.136Z,5.60
2018-10-03T12:59:36.095Z,4.53
2018-10-03T13:02:03.048Z,4.77
2018-10-03T13:04:29.991Z,7.37
2018-10-03T13:06:57.029Z,9.40
2018-10-03T13:09:23.955Z,7.97
2018-10-03T13:11:50.862Z,3.57
2018-10-03T13:14:17.810Z,4.20
2018-10-03T13:16:44.784Z,6.75
2018-10-03T13:32:50.894Z,6.90
2018-10-03T13:35:17.859Z,5.67
2018-10-03T13:37:44.936Z,8.30
2018-10-03T13:40:12.024Z,6.40
2018-10-03T13:42:39.015Z,6.57
2018-10-03T13:45:06.167Z,5.57
2018-10-03T13:47:33.310Z,7.23
2018-10-03T13:50:00.498Z,4.23
2018-10-03T13:52:27.508Z,7.53
2018-10-03T13:54:55.653Z,9.30
2018-10-03T13:57:22.743Z,6.30
2018-10-03T13:59:49.896Z,5.20
2018-10-03T14:02:30.231Z,7.60
2018-10-03T14:04:57.444Z,7.13
2018-10-03T14:07:24.407Z,6.83
2018-10-03T14:09:51.420Z,8.53
2018-10-03T14:12:18.394Z,5.60
2018-10-03T14:14:45.348Z,6.93
2018-10-03T14:17:12.358Z,6.60
2018-10-03T14:19:39.323Z,5.17
2018-10-03T14:22:06.389Z,6.43
2018-10-03T14:24:33.420Z,11.57
2018-10-03T14:27:00.333Z,7.63
2018-10-03T14:29:27.285Z,8.63
2018-10-03T14:31:54.308Z,5.00
2018-10-03T14:34:21.235Z,7.23
2018-10-03T14:36:48.136Z,6.00
2018-10-03T14:39:15.081Z,11.27
2018-10-03T14:41:42.001Z,9.60
2018-10-03T14:44:08.936Z,5.13
2018-10-03T14:46:35.999Z,6.13
2018-10-03T14:49:02.958Z,8.23
2018-10-03T14:51:29.872Z,6.80
2018-10-03T14:53:56.862Z,13.27
2018-10-03T14:56:23.794Z,4.63
2018-10-03T14:58:50.855Z,8.20
2018-10-03T15:01:17.655Z,5.90
2018-10-03T15:03:45.434Z,3.53
2018-10-03T15:06:12.324Z,7.00
2018-10-03T15:08:39.441Z,7.20
2018-10-03T15:11:06.815Z,6.87
2018-10-03T15:13:33.784Z,10.33
2018-10-03T15:16:00.827Z,8.77
2018-10-03T15:18:28.398Z,6.13
2018-10-03T15:20:55.377Z,5.07
2018-10-03T15:23:22.385Z,6.73
2018-10-03T15:25:49.437Z,7.27
2018-10-03T15:28:16.484Z,8.70
2018-10-03T15:30:44.735Z,10.37
2018-10-03T15:33:11.927Z,10.10
2018-10-03T15:35:39.124Z,13.10
2018-10-03T15:38:07.092Z,8.10
2018-10-03T15:40:34.113Z,9.07
2018-10-03T15:43:01.568Z,5.07
2018-10-03T15:45:28.798Z,9.10
2018-10-03T15:47:56.928Z,7.33
2018-10-03T15:50:26.259Z,8.40
2018-10-03T15:52:55.361Z,7.13
2018-10-03T15:55:22.744Z,8.10
2018-10-03T15:57:49.838Z,6.00
2018-10-03T16:00:17.006Z,6.43
2018-10-03T16:02:44.088Z,5.40
2018-10-03T16:05:11.167Z,8.03
2018-10-03T16:07:38.367Z,9.43
2018-10-03T16:10:05.571Z,9.33
2018-10-03T16:12:32.569Z,10.07
2018-10-03T16:14:59.948Z,8.43
2018-10-03T16:17:27.045Z,8.30
2018-10-03T16:19:54.169Z,10.63
2018-10-03T16:22:21.217Z,9.80
2018-10-03T16:24:48.273Z,16.00
2018-10-03T16:27:15.699Z,15.63
2018-10-03T16:29:43.235Z,14.37
2018-10-03T16:32:10.247Z,14.27
2018-10-03T16:34:37.360Z,11.77
2018-10-03T16:37:04.734Z,9.17
2018-10-03T16:39:31.824Z,8.93
2018-10-03T16:41:58.949Z,12.30
2018-10-03T16:44:26.106Z,9.50
2018-10-03T16:46:53.083Z,8.67
2018-10-03T16:49:20.101Z,7.13
2018-10-03T16:51:47.097Z,6.30
2018-10-03T16:54:14.067Z,7.63
2018-10-03T16:56:41.151Z,7.77
2018-10-03T16:59:08.146Z,5.23
2018-10-03T17:01:35.407Z,7.67
2018-10-03T17:04:02.401Z,8.23
2018-10-03T17:06:29.357Z,5.00
2018-10-03T17:08:56.418Z,7.40
2018-10-03T17:11:23.480Z,10.03
2018-10-03T17:14:04.992Z,10.67
2018-10-03T17:16:31.984Z,14.87
2018-10-03T17:18:59.172Z,10.70
2018-10-03T17:21:26.155Z,10.73
2018-10-03T17:23:53.377Z,8.33
2018-10-03T17:26:20.372Z,7.53
2018-10-03T17:28:47.361Z,6.93
2018-10-03T17:31:14.366Z,7.97
2018-10-03T17:33:41.328Z,8.10
2018-10-03T17:36:08.344Z,9.07
2018-10-03T17:38:35.344Z,8.30
2018-10-03T17:41:02.445Z,7.67
2018-10-03T17:43:29.552Z,6.33
2018-10-03T17:45:56.649Z,9.23
2018-10-03T17:48:23.662Z,12.57
2018-10-03T17:50:50.769Z,11.20
2018-10-03T17:53:17.859Z,7.27
2018-10-03T17:55:44.851Z,6.73
2018-10-03T17:58:13.153Z,9.87
2018-10-03T18:00:40.485Z,10.37
2018-10-03T18:03:07.559Z,13.63
2018-10-03T18:05:34.908Z,10.23
2018-10-03T18:08:01.961Z,15.33
2018-10-03T18:10:30.208Z,9.00
2018-10-03T18:12:57.304Z,11.07
2018-10-03T18:15:24.328Z,15.83
2018-10-03T18:17:51.354Z,13.17
2018-10-03T18:20:18.404Z,8.60
2018-10-03T18:22:45.478Z,8.70
2018-10-03T18:25:12.615Z,6.97
2018-10-03T18:27:39.627Z,8.30
2018-10-03T18:30:07.003Z,7.37
2018-10-03T18:32:34.037Z,7.13
2018-10-03T18:35:01.961Z,8.17
2018-10-03T18:37:29.031Z,3.80
2018-10-03T18:39:56.099Z,6.50
2018-10-03T18:42:23.414Z,5.23
2018-10-03T18:44:50.547Z,5.93
2018-10-03T18:47:17.604Z,3.83
2018-10-03T18:49:44.796Z,7.17
2018-10-03T18:52:11.957Z,5.77
2018-10-03T18:54:39.190Z,8.90
2018-10-03T18:57:06.465Z,5.43
2018-10-03T18:59:33.904Z,9.33
2018-10-03T19:02:00.947Z,9.23
2018-10-03T19:04:27.963Z,4.33
2018-10-03T19:06:55.036Z,7.87
2018-10-03T19:09:22.127Z,6.47
2018-10-03T19:11:49.160Z,10.83
2018-10-03T19:14:16.172Z,6.07
2018-10-03T19:16:43.501Z,9.50
2018-10-03T19:33:22.569Z,6.27
2018-10-03T19:35:50.184Z,6.83
2018-10-03T19:38:18.590Z,8.73
2018-10-03T19:40:49.738Z,6.43
2018-10-03T19:43:17.505Z,7.40
2018-10-03T19:45:52.051Z,6.37
2018-10-03T19:48:19.701Z,10.70
2018-10-03T19:50:46.933Z,5.90
2018-10-03T19:53:17.845Z,8.60
2018-10-03T19:55:45.263Z,9.83
2018-10-03T19:58:12.575Z,10.80
2018-10-03T20:00:39.589Z,9.00
2018-10-03T20:03:06.555Z,7.70
2018-10-03T20:05:33.567Z,9.67
2018-10-03T20:08:00.599Z,9.90
2018-10-03T20:10:27.593Z,10.40
2018-10-03T20:12:54.684Z,10.07
2018-10-03T20:15:22.183Z,7.00
2018-10-03T20:17:49.515Z,11.57
2018-10-03T20:20:17.002Z,9.27
2018-10-03T20:22:46.612Z,9.00
2018-10-03T20:25:13.686Z,4.73
2018-10-03T20:27:42.557Z,5.90
2018-10-03T20:30:09.788Z,7.63
2018-10-03T20:32:37.013Z,8.63
2018-10-03T20:35:04.331Z,10.37
2018-10-03T20:37:31.553Z,9.00
2018-10-03T20:39:59.163Z,11.07
2018-10-03T20:42:26.389Z,9.00
2018-10-03T20:47:33.022Z,9.27
2018-10-03T20:50:00.196Z,13.07
2018-10-03T20:52:27.418Z,6.10
2018-10-03T20:54:54.784Z,9.87
2018-10-03T20:57:23.332Z,9.07
2018-10-03T20:59:50.760Z,6.87
2018-10-03T21:02:17.971Z,7.83
2018-10-03T21:04:45.139Z,9.10
2018-10-03T21:07:12.231Z,9.73
2018-10-03T21:09:39.487Z,7.33
2018-10-03T21:12:06.605Z,6.90
2018-10-03T21:14:33.606Z,10.10
2018-10-03T21:17:00.721Z,10.17
2018-10-03T21:19:28.000Z,7.07
2018-10-03T21:21:55.142Z,9.30
2018-10-03T21:24:22.238Z,8.97
2018-10-03T21:26:49.284Z,7.67
2018-10-03T21:32:01.620Z,10.17
2018-10-03T21:34:28.723Z,8.53
2018-10-03T21:36:56.136Z,12.00
2018-10-03T21:39:23.202Z,11.07
2018-10-03T21:41:50.281Z,7.23
2018-10-03T21:44:17.311Z,8.83
2018-10-03T21:46:44.380Z,5.23
2018-10-03T21:49:11.400Z,7.67
2018-10-03T21:51:38.902Z,8.23
2018-10-03T21:54:06.964Z,5.37
2018-10-03T21:56:34.145Z,7.23
2018-10-03T21:59:01.181Z,7.17
2018-10-03T22:01:28.226Z,9.33
2018-10-03T22:03:55.258Z,8.40
2018-10-03T22:06:22.275Z,5.70
2018-10-03T22:08:49.449Z,6.30
2018-10-03T22:11:16.485Z,8.17
2018-10-03T22:13:43.527Z,5.73
2018-10-03T22:16:10.511Z,9.40
2018-10-03T22:18:37.585Z,5.20
2018-10-03T22:21:04.634Z,6.13
2018-10-03T22:23:31.640Z,5.70
2018-10-03T22:26:00.942Z,9.53
2018-10-03T22:28:27.960Z,11.63
2018-10-03T22:30:55.022Z,8.37
2018-10-03T22:33:22.052Z,10.83
2018-10-03T22:35:49.250Z,6.63
2018-10-03T22:38:16.613Z,6.13
2018-10-03T22:40:43.702Z,5.90
2018-10-03T22:43:10.805Z,9.07
2018-10-03T22:45:37.847Z,6.80
2018-10-03T22:48:05.337Z,7.30
2018-10-03T22:50:32.305Z,5.63
2018-10-03T22:53:00.058Z,9.73
2018-10-03T22:55:27.071Z,9.43
2018-10-03T22:57:54.117Z,10.40
2018-10-03T23:00:21.160Z,9.23
2018-10-03T23:02:48.155Z,9.30
2018-10-03T23:05:15.819Z,7.40
2018-10-03T23:07:43.079Z,10.20
2018-10-03T23:10:12.101Z,8.77
2018-10-03T23:12:39.154Z,6.03
2018-10-03T23:15:06.175Z,11.07
2018-10-03T23:17:33.210Z,13.30
2018-10-03T23:20:00.319Z,7.07
2018-10-03T23:22:27.345Z,8.60
2018-10-03T23:24:54.394Z,6.83
2018-10-03T23:27:21.418Z,9.63
2018-10-03T23:29:48.562Z,8.83
2018-10-03T23:32:15.705Z,10.10
2018-10-03T23:34:42.756Z,7.93
2018-10-03T23:37:09.818Z,9.03
2018-10-03T23:39:36.842Z,7.40
2018-10-03T23:42:04.064Z,13.13
2018-10-03T23:44:31.078Z,8.53
2018-10-03T23:46:58.200Z,7.70
2018-10-03T23:49:25.287Z,7.87
2018-10-03T23:51:52.489Z,8.07
2018-10-03T23:54:19.559Z,7.60
2018-10-03T23:56:46.692Z,7.87
2018-10-03T23:59:13.788Z,12.13
